createdAt,value
2019-02-17T00:00:31.392Z,58.67
2019-02-17T00:02:59.158Z,58.75
2019-02-17T00:05:26.935Z,59.15
2019-02-17T00:07:54.896Z,58.88
2019-02-17T00:10:22.676Z,59.07
2019-02-17T00:12:50.445Z,59.12
2019-02-17T00:15:18.210Z,59.54
2019-02-17T00:17:45.932Z,59.55
2019-02-17T00:20:13.680Z,59.89
2019-02-17T00:22:41.441Z,60.38
2019-02-17T00:25:09.175Z,60.65
2019-02-17T00:27:36.927Z,60.64
2019-02-17T00:30:04.907Z,60.95
2019-02-17T00:32:32.835Z,60.52
2019-02-17T00:35:00.569Z,60.86
2019-02-17T00:37:28.511Z,60.55
2019-02-17T00:39:56.263Z,60.36
2019-02-17T00:42:24.191Z,60.47
2019-02-17T00:44:52.095Z,60.47
2019-02-17T00:47:20.091Z,60.58
2019-02-17T00:49:47.867Z,60.48
2019-02-17T00:52:15.630Z,60.58
2019-02-17T00:54:43.365Z,60.60
2019-02-17T00:57:11.145Z,60.60
2019-02-17T00:59:38.920Z,60.51
2019-02-17T01:02:06.676Z,60.70
2019-02-17T01:04:34.429Z,60.80
2019-02-17T01:07:02.194Z,60.45
2019-02-17T01:09:30.119Z,61.03
2019-02-17T01:11:57.922Z,61.32
2019-02-17T01:14:25.685Z,60.98
2019-02-17T01:16:53.555Z,61.10
2019-02-17T01:19:24.294Z,61.12
2019-02-17T01:21:52.095Z,61.61
2019-02-17T01:24:20.006Z,61.87
2019-02-17T01:26:47.775Z,61.94
2019-02-17T01:29:20.548Z,62.07
2019-02-17T01:31:45.296Z,62.35
2019-02-17T01:34:13.346Z,62.28
2019-02-17T01:36:41.359Z,62.58
2019-02-17T01:39:09.127Z,62.58
2019-02-17T01:41:36.876Z,62.59
2019-02-17T01:44:04.874Z,62.99
2019-02-17T01:46:32.620Z,62.94
2019-02-17T01:49:00.399Z,63.01
2019-02-17T01:51:28.130Z,63.02
2019-02-17T01:53:55.903Z,63.11
2019-02-17T01:56:23.654Z,63.09
2019-02-17T01:58:51.437Z,62.99
2019-02-17T02:01:19.177Z,63.32
2019-02-17T02:03:46.953Z,63.42
2019-02-17T02:06:14.859Z,63.59
2019-02-17T02:08:42.649Z,63.50
2019-02-17T02:11:10.613Z,63.32
2019-02-17T02:13:38.391Z,63.26
2019-02-17T02:16:06.115Z,62.96
2019-02-17T02:18:34.073Z,63.16
2019-02-17T02:21:01.961Z,63.18
2019-02-17T02:23:29.693Z,63.37
2019-02-17T02:25:57.586Z,63.35
2019-02-17T02:28:25.351Z,63.35
2019-02-17T02:30:53.100Z,63.42
2019-02-17T02:33:20.864Z,63.66
2019-02-17T02:35:48.576Z,63.85
2019-02-17T02:38:16.380Z,63.69
2019-02-17T02:40:44.104Z,63.53
2019-02-17T02:43:11.856Z,64.09
2019-02-17T02:45:40.831Z,64.08
2019-02-17T02:48:08.601Z,64.09
2019-02-17T02:50:36.516Z,63.94
2019-02-17T02:53:04.273Z,64.01
2019-02-17T02:55:32.204Z,64.38
2019-02-17T02:57:59.929Z,64.41
2019-02-17T03:00:27.878Z,64.50
2019-02-17T03:02:55.641Z,64.47
2019-02-17T03:05:23.489Z,64.86
2019-02-17T03:07:51.246Z,64.78
2019-02-17T03:10:19.191Z,64.99
2019-02-17T03:12:47.011Z,64.97
2019-02-17T03:15:15.054Z,65.05
2019-02-17T03:17:42.814Z,65.18
2019-02-17T03:20:10.736Z,64.90
2019-02-17T03:22:38.455Z,65.19
2019-02-17T03:25:08.130Z,65.48
2019-02-17T03:27:35.877Z,65.32
2019-02-17T03:30:06.181Z,65.36
2019-02-17T03:32:34.320Z,65.48
2019-02-17T03:35:02.092Z,65.51
2019-02-17T03:37:30.075Z,65.93
2019-02-17T03:39:57.864Z,65.63
2019-02-17T03:42:25.912Z,65.77
2019-02-17T03:44:53.862Z,65.97
2019-02-17T03:47:21.626Z,66.27
2019-02-17T03:49:49.612Z,66.29
2019-02-17T03:52:17.519Z,66.40
2019-02-17T03:54:45.297Z,66.56
2019-02-17T03:57:13.239Z,66.83
2019-02-17T03:59:40.994Z,67.04
2019-02-17T04:02:08.937Z,66.93
2019-02-17T04:04:36.683Z,67.09
2019-02-17T04:07:04.635Z,66.98
2019-02-17T04:09:32.348Z,67.03
2019-02-17T04:12:00.333Z,67.11
2019-02-17T04:14:28.083Z,67.49
2019-02-17T04:16:55.833Z,67.80
2019-02-17T04:19:23.621Z,67.90
2019-02-17T04:21:51.709Z,68.23
2019-02-17T04:24:19.493Z,68.48
2019-02-17T04:26:53.810Z,68.49
2019-02-17T04:29:21.597Z,68.64
2019-02-17T04:31:49.669Z,68.61
2019-02-17T04:34:17.403Z,68.30
2019-02-17T04:36:45.329Z,68.21
2019-02-17T04:39:13.055Z,68.12
2019-02-17T04:41:40.843Z,68.69
2019-02-17T04:44:08.666Z,69.10
2019-02-17T04:46:36.459Z,69.16
2019-02-17T04:49:04.233Z,69.35
2019-02-17T04:51:32.190Z,69.53
2019-02-17T04:53:59.878Z,69.72
2019-02-17T04:56:27.839Z,69.82
2019-02-17T04:58:55.569Z,69.72
2019-02-17T05:01:23.331Z,69.60
2019-02-17T05:03:51.056Z,69.50
2019-02-17T05:06:18.845Z,69.09
2019-02-17T05:08:46.757Z,69.22
2019-02-17T05:11:14.530Z,69.33
2019-02-17T05:13:42.280Z,69.23
2019-02-17T05:16:10.083Z,69.01
2019-02-17T05:18:37.839Z,68.97
2019-02-17T05:21:05.758Z,69.23
2019-02-17T05:23:33.720Z,69.22
2019-02-17T05:26:01.621Z,69.04
2019-02-17T05:28:29.386Z,69.03
2019-02-17T05:30:57.186Z,69.01
2019-02-17T05:33:25.214Z,69.00
2019-02-17T05:35:52.991Z,69.17
2019-02-17T05:38:20.942Z,69.18
2019-02-17T05:40:48.734Z,69.36
2019-02-17T05:43:16.515Z,69.35
2019-02-17T05:45:44.285Z,69.41
2019-02-17T05:48:12.242Z,69.75
2019-02-17T05:50:39.991Z,69.85
2019-02-17T05:53:07.947Z,69.82
2019-02-17T05:55:35.731Z,69.88
2019-02-17T05:58:03.506Z,69.83
2019-02-17T06:00:32.984Z,69.95
2019-02-17T06:03:00.858Z,70.10
2019-02-17T06:05:28.629Z,70.21
2019-02-17T06:07:56.566Z,70.30
2019-02-17T06:10:24.338Z,70.43
2019-02-17T06:12:52.156Z,70.40
2019-02-17T06:15:19.937Z,70.43
2019-02-17T06:17:47.758Z,70.32
2019-02-17T06:20:15.528Z,70.56
2019-02-17T06:22:43.488Z,70.85
2019-02-17T06:25:11.264Z,71.00
2019-02-17T06:27:39.063Z,70.84
2019-02-17T06:30:07.164Z,71.22
2019-02-17T06:32:35.201Z,71.26
2019-02-17T06:35:03.002Z,71.27
2019-02-17T06:37:30.935Z,71.20
2019-02-17T06:39:58.919Z,71.64
2019-02-17T06:42:26.642Z,72.00
2019-02-17T06:44:54.491Z,72.22
2019-02-17T06:47:26.250Z,72.00
2019-02-17T06:49:54.198Z,71.78
2019-02-17T06:52:22.247Z,71.59
2019-02-17T06:55:15.755Z,71.62
2019-02-17T06:57:43.563Z,71.45
2019-02-17T07:00:39.962Z,71.39
2019-02-17T07:03:07.731Z,71.43
2019-02-17T07:05:56.738Z,71.79
2019-02-17T07:08:24.932Z,71.60
2019-02-17T07:10:52.677Z,71.38
2019-02-17T07:13:20.429Z,70.67
2019-02-17T07:15:48.228Z,70.37
2019-02-17T07:18:15.947Z,70.31
2019-02-17T07:20:43.886Z,70.53
2019-02-17T07:23:11.811Z,69.69
2019-02-17T07:25:39.739Z,69.01
2019-02-17T07:28:07.489Z,68.75
2019-02-17T07:30:35.271Z,67.96
2019-02-17T07:33:03.125Z,67.51
2019-02-17T07:35:31.119Z,67.25
2019-02-17T07:37:59.040Z,67.16
2019-02-17T07:40:26.907Z,67.11
2019-02-17T07:42:54.736Z,67.05
2019-02-17T07:45:22.668Z,67.02
2019-02-17T07:47:50.576Z,67.10
2019-02-17T07:50:18.572Z,66.91
2019-02-17T07:52:46.385Z,66.49
2019-02-17T07:55:14.193Z,66.31
2019-02-17T07:57:42.015Z,66.16
2019-02-17T08:00:09.856Z,65.93
2019-02-17T08:02:37.645Z,65.66
2019-02-17T08:05:07.456Z,65.53
2019-02-17T08:07:35.302Z,64.55
2019-02-17T08:10:03.501Z,64.18
2019-02-17T08:12:31.363Z,64.10
2019-02-17T08:14:59.357Z,64.12
2019-02-17T08:17:27.128Z,63.23
2019-02-17T08:19:54.918Z,63.13
2019-02-17T08:22:22.703Z,63.22
2019-02-17T08:24:50.456Z,62.94
2019-02-17T08:27:18.225Z,62.72
2019-02-17T08:29:46.015Z,62.13
2019-02-17T08:32:13.804Z,62.27
2019-02-17T08:34:41.551Z,61.72
2019-02-17T08:37:09.335Z,61.45
2019-02-17T08:39:37.118Z,60.91
2019-02-17T08:42:05.077Z,60.79
2019-02-17T08:44:32.841Z,60.46
2019-02-17T08:47:00.669Z,59.53
2019-02-17T08:49:28.425Z,59.50
2019-02-17T08:51:56.263Z,59.11
2019-02-17T08:54:24.033Z,58.93
2019-02-17T08:56:51.842Z,58.44
2019-02-17T08:59:19.598Z,58.03
2019-02-17T09:01:47.391Z,57.96
2019-02-17T09:04:15.317Z,57.73
2019-02-17T09:06:43.347Z,57.14
2019-02-17T09:09:11.107Z,57.00
2019-02-17T09:11:38.885Z,56.16
2019-02-17T09:14:06.649Z,55.95
2019-02-17T09:16:34.551Z,55.72
2019-02-17T09:19:02.320Z,55.70
2019-02-17T09:21:30.548Z,55.49
2019-02-17T09:23:58.343Z,54.54
2019-02-17T09:26:26.275Z,54.62
2019-02-17T09:28:54.113Z,54.32
2019-02-17T09:31:21.974Z,54.17
2019-02-17T09:33:49.860Z,53.59
2019-02-17T09:36:17.629Z,53.10
2019-02-17T09:38:45.465Z,52.92
2019-02-17T09:41:13.333Z,52.44
2019-02-17T09:43:41.105Z,52.06
2019-02-17T09:46:09.068Z,51.30
2019-02-17T09:48:36.912Z,50.91
2019-02-17T09:51:04.699Z,50.99
2019-02-17T09:53:32.465Z,50.40
2019-02-17T09:56:00.302Z,50.25
2019-02-17T09:58:28.073Z,48.89
2019-02-17T10:00:55.862Z,48.44
2019-02-17T10:03:23.626Z,48.38
2019-02-17T10:05:51.400Z,48.23
2019-02-17T10:08:19.152Z,48.04
2019-02-17T10:10:47.053Z,47.93
2019-02-17T10:13:14.842Z,47.39
2019-02-17T10:15:43.105Z,47.20
2019-02-17T10:18:10.893Z,46.51
2019-02-17T10:20:38.707Z,46.22
2019-02-17T10:23:06.518Z,45.92
2019-02-17T10:25:34.255Z,45.62
2019-02-17T10:28:02.032Z,45.07
2019-02-17T10:31:09.220Z,44.98
2019-02-17T10:33:37.109Z,44.87
2019-02-17T10:36:04.877Z,45.14
2019-02-17T10:38:32.692Z,45.14
2019-02-17T10:41:00.444Z,44.61
2019-02-17T10:43:28.251Z,44.40
2019-02-17T10:45:56.012Z,43.50
2019-02-17T10:48:23.772Z,43.35
2019-02-17T10:50:51.553Z,42.97
2019-02-17T10:53:19.337Z,41.82
2019-02-17T10:55:47.083Z,41.03
2019-02-17T10:58:14.930Z,38.74
2019-02-17T11:00:42.883Z,36.77
2019-02-17T11:03:10.745Z,36.84
2019-02-17T11:05:38.507Z,37.09
2019-02-17T11:08:06.303Z,38.24
2019-02-17T11:10:34.114Z,39.02
2019-02-17T11:13:02.727Z,40.79
2019-02-17T11:15:31.235Z,41.53
2019-02-17T11:17:59.010Z,41.61
2019-02-17T11:20:26.827Z,41.60
2019-02-17T11:22:54.570Z,41.31
2019-02-17T11:25:22.371Z,41.27
2019-02-17T11:27:50.134Z,41.22
2019-02-17T11:30:18.003Z,40.85
2019-02-17T11:32:45.759Z,41.18
2019-02-17T11:35:13.737Z,41.40
2019-02-17T11:37:41.533Z,41.50
2019-02-17T11:40:10.390Z,41.21
2019-02-17T11:42:38.234Z,40.38
2019-02-17T11:45:08.791Z,39.88
2019-02-17T11:47:36.661Z,39.51
2019-02-17T11:50:04.969Z,38.89
2019-02-17T11:52:32.750Z,37.66
2019-02-17T11:55:00.623Z,36.06
2019-02-17T11:57:28.416Z,35.67
2019-02-17T11:59:56.316Z,34.91
2019-02-17T12:02:25.267Z,35.16
2019-02-17T12:04:53.298Z,32.73
2019-02-17T12:07:21.088Z,30.63
2019-02-17T12:09:49.006Z,28.39
2019-02-17T12:12:16.869Z,25.12
2019-02-17T12:14:44.644Z,22.14
2019-02-17T12:17:12.444Z,20.45
2019-02-17T12:19:40.226Z,20.50
2019-02-17T12:22:23.583Z,19.89
2019-02-17T12:25:00.251Z,18.92
2019-02-17T12:27:32.664Z,19.00
2019-02-17T12:30:04.513Z,20.09
2019-02-17T12:32:32.329Z,23.31
2019-02-17T12:35:00.214Z,26.40
2019-02-17T12:37:28.053Z,29.19
2019-02-17T12:39:55.843Z,30.61
2019-02-17T12:42:23.639Z,32.43
2019-02-17T12:44:51.443Z,33.98
2019-02-17T12:47:19.239Z,34.87
2019-02-17T12:49:47.013Z,35.87
2019-02-17T12:52:14.799Z,35.66
2019-02-17T12:54:42.592Z,35.78
2019-02-17T12:57:10.429Z,35.82
2019-02-17T12:59:39.011Z,36.28
2019-02-17T13:02:06.835Z,36.59
2019-02-17T13:04:34.590Z,36.42
2019-02-17T13:07:02.683Z,36.05
2019-02-17T13:09:30.607Z,36.01
2019-02-17T13:11:58.499Z,36.02
2019-02-17T13:14:26.337Z,36.22
2019-02-17T13:16:54.123Z,36.55
2019-02-17T13:19:21.888Z,36.75
2019-02-17T13:21:49.777Z,36.87
2019-02-17T13:24:17.586Z,36.66
2019-02-17T13:26:45.381Z,36.86
2019-02-17T13:29:13.182Z,37.04
2019-02-17T13:31:40.962Z,37.07
2019-02-17T13:34:08.747Z,37.37
2019-02-17T13:36:36.551Z,36.90
2019-02-17T13:39:06.243Z,36.84
2019-02-17T13:41:34.012Z,36.79
2019-02-17T13:44:02.086Z,37.24
2019-02-17T13:46:29.907Z,37.26
2019-02-17T13:48:57.746Z,37.08
2019-02-17T13:51:25.791Z,36.94
2019-02-17T13:53:53.735Z,36.56
2019-02-17T13:56:21.520Z,36.49
2019-02-17T13:58:50.121Z,36.44
2019-02-17T14:01:17.969Z,36.81
2019-02-17T14:03:48.758Z,36.79
2019-02-17T14:06:15.568Z,37.05
2019-02-17T14:08:43.375Z,36.62
2019-02-17T14:11:11.156Z,36.40
2019-02-17T14:13:39.053Z,36.76
2019-02-17T14:16:06.814Z,36.39
2019-02-17T14:18:34.675Z,36.42
2019-02-17T14:21:02.508Z,35.83
2019-02-17T14:23:30.314Z,31.72
2019-02-17T14:25:58.088Z,27.12
2019-02-17T14:28:25.979Z,24.02
2019-02-17T14:30:53.789Z,22.01
2019-02-17T14:33:21.584Z,20.46
2019-02-17T14:35:49.437Z,19.74
2019-02-17T14:38:17.214Z,19.30
2019-02-17T14:40:45.045Z,18.65
2019-02-17T14:43:12.873Z,18.32
2019-02-17T14:45:40.759Z,18.83
2019-02-17T14:48:08.501Z,19.42
2019-02-17T14:50:36.317Z,20.24
2019-02-17T14:53:04.081Z,20.47
2019-02-17T14:55:31.843Z,20.23
2019-02-17T14:58:05.589Z,21.83
2019-02-17T15:00:29.371Z,22.72
2019-02-17T15:02:57.177Z,23.68
2019-02-17T15:05:24.946Z,23.51
2019-02-17T15:07:52.692Z,23.43
2019-02-17T15:10:20.516Z,25.02
2019-02-17T15:12:48.315Z,26.36
2019-02-17T15:15:16.138Z,25.79
2019-02-17T15:17:43.931Z,26.01
2019-02-17T15:20:12.078Z,26.06
2019-02-17T15:22:39.907Z,26.52
2019-02-17T15:25:11.221Z,26.84
2019-02-17T15:27:38.961Z,27.71
2019-02-17T15:30:09.553Z,28.77
2019-02-17T15:32:37.363Z,29.97
2019-02-17T15:35:05.494Z,30.85
2019-02-17T15:37:33.295Z,31.69
2019-02-17T15:40:01.108Z,32.62
2019-02-17T15:42:28.901Z,33.76
2019-02-17T15:44:56.675Z,34.85
2019-02-17T15:47:24.464Z,35.92
2019-02-17T15:49:52.257Z,37.24
2019-02-17T15:52:20.155Z,38.43
2019-02-17T15:54:48.020Z,39.77
2019-02-17T15:57:15.784Z,40.79
2019-02-17T15:59:43.576Z,41.93
2019-02-17T16:02:11.318Z,42.91
2019-02-17T16:04:39.134Z,44.99
2019-02-17T16:07:07.028Z,45.88
2019-02-17T16:09:34.961Z,47.19
2019-02-17T16:12:02.784Z,47.57
2019-02-17T16:14:30.979Z,47.83
2019-02-17T16:16:58.768Z,48.43
2019-02-17T16:19:26.569Z,48.73
2019-02-17T16:21:54.334Z,49.48
2019-02-17T16:24:22.088Z,49.74
2019-02-17T16:26:49.871Z,50.09
2019-02-17T16:29:17.665Z,50.43
2019-02-17T16:31:45.494Z,50.82
2019-02-17T16:34:13.288Z,51.27
2019-02-17T16:36:41.082Z,51.53
2019-02-17T16:39:11.985Z,51.71
2019-02-17T16:41:39.798Z,52.12
2019-02-17T16:44:07.606Z,52.63
2019-02-17T16:46:35.390Z,52.94
2019-02-17T16:49:03.694Z,53.33
2019-02-17T16:51:31.519Z,53.61
2019-02-17T16:53:59.345Z,54.06
2019-02-17T16:56:27.155Z,54.25
2019-02-17T16:58:54.983Z,54.40
2019-02-17T17:01:22.819Z,54.60
2019-02-17T17:03:50.587Z,54.61
2019-02-17T17:06:18.469Z,54.60
2019-02-17T17:08:46.277Z,54.76
2019-02-17T17:11:14.087Z,54.66
2019-02-17T17:13:41.893Z,54.84
2019-02-17T17:16:09.661Z,55.04
2019-02-17T17:18:37.435Z,55.30
2019-02-17T17:21:05.339Z,54.98
2019-02-17T17:23:33.382Z,55.16
2019-02-17T17:26:01.153Z,55.17
2019-02-17T17:28:28.929Z,55.06
2019-02-17T17:30:56.737Z,55.57
2019-02-17T17:33:24.609Z,55.62
2019-02-17T17:35:52.402Z,55.77
2019-02-17T17:38:20.929Z,55.63
2019-02-17T17:40:48.888Z,55.55
2019-02-17T17:43:16.668Z,55.70
2019-02-17T17:45:44.471Z,56.48
2019-02-17T17:48:12.256Z,57.26
2019-02-17T17:50:40.064Z,56.87
2019-02-17T17:53:07.974Z,57.19
2019-02-17T17:55:35.729Z,57.12
2019-02-17T17:58:03.511Z,57.19
2019-02-17T18:00:32.989Z,57.54
2019-02-17T18:03:00.745Z,57.83
2019-02-17T18:05:28.554Z,57.97
2019-02-17T18:07:56.331Z,57.55
2019-02-17T18:10:25.373Z,57.50
2019-02-17T18:12:53.112Z,57.54
2019-02-17T18:15:21.104Z,57.59
2019-02-17T18:17:54.703Z,57.87
2019-02-17T18:20:18.648Z,58.05
2019-02-17T18:22:46.488Z,58.09
2019-02-17T18:25:14.566Z,57.75
2019-02-17T18:27:42.325Z,57.07
2019-02-17T18:30:12.022Z,55.87
2019-02-17T18:32:39.915Z,54.76
2019-02-17T18:35:08.246Z,53.05
2019-02-17T18:37:36.098Z,52.01
2019-02-17T18:40:04.401Z,50.61
2019-02-17T18:42:32.186Z,49.76
2019-02-17T18:44:59.992Z,49.27
2019-02-17T18:47:27.751Z,48.91
2019-02-17T18:49:55.557Z,49.27
2019-02-17T18:52:23.322Z,48.72
2019-02-17T18:54:51.134Z,48.70
2019-02-17T18:57:18.926Z,48.05
2019-02-17T18:59:46.747Z,48.41
2019-02-17T19:02:14.580Z,48.33
2019-02-17T19:04:42.369Z,48.16
2019-02-17T19:07:10.181Z,48.70
2019-02-17T19:09:38.012Z,48.46
2019-02-17T19:12:05.811Z,48.74
2019-02-17T19:14:33.605Z,48.62
2019-02-17T19:17:02.189Z,48.61
2019-02-17T19:19:29.984Z,48.87
2019-02-17T19:21:57.813Z,49.03
2019-02-17T19:24:25.868Z,48.64
2019-02-17T19:26:53.704Z,48.46
2019-02-17T19:29:21.488Z,48.30
2019-02-17T19:31:49.277Z,48.25
2019-02-17T19:34:17.092Z,47.99
2019-02-17T19:36:44.964Z,47.95
2019-02-17T19:39:12.837Z,47.70
2019-02-17T19:41:40.636Z,47.86
2019-02-17T19:44:08.414Z,48.05
2019-02-17T19:46:36.196Z,48.08
2019-02-17T19:49:03.963Z,48.25
2019-02-17T19:51:31.710Z,48.42
2019-02-17T19:53:59.494Z,48.71
2019-02-17T19:56:27.266Z,48.84
2019-02-17T19:58:55.049Z,48.67
2019-02-17T20:01:22.842Z,48.73
2019-02-17T20:03:56.297Z,48.75
2019-02-17T20:06:25.194Z,48.52
2019-02-17T20:08:52.985Z,48.66
2019-02-17T20:11:20.784Z,48.59
2019-02-17T20:13:48.592Z,49.13
2019-02-17T20:22:37.664Z,48.67
2019-02-17T20:25:24.934Z,48.93
2019-02-17T20:28:42.762Z,49.10
2019-02-17T20:31:13.926Z,49.62
2019-02-17T20:37:51.145Z,49.52
2019-02-17T20:53:18.073Z,50.62
2019-02-17T20:56:05.553Z,51.03
2019-02-17T20:58:45.857Z,51.18
2019-02-17T21:02:28.924Z,50.98
2019-02-17T21:05:13.937Z,51.37
2019-02-17T21:07:54.024Z,51.74
2019-02-17T21:10:41.276Z,51.95
2019-02-17T21:13:21.951Z,52.32
2019-02-17T21:19:00.856Z,52.53
2019-02-17T21:21:48.299Z,53.21
2019-02-17T21:24:28.901Z,53.25
2019-02-17T21:27:16.145Z,53.39
2019-02-17T21:29:56.832Z,53.47
2019-02-17T21:32:44.070Z,53.50
2019-02-17T21:35:24.092Z,54.25
2019-02-17T21:38:11.327Z,54.02
2019-02-17T21:40:51.258Z,54.07
2019-02-17T21:43:38.485Z,54.44
2019-02-17T21:46:18.438Z,54.57
2019-02-17T21:49:05.665Z,54.65
2019-02-17T21:51:45.705Z,54.91
2019-02-17T21:54:32.913Z,55.21
2019-02-17T21:57:13.413Z,55.03
2019-02-17T22:00:00.626Z,55.33
2019-02-17T22:02:47.952Z,55.37
2019-02-17T22:05:28.745Z,55.55
2019-02-17T22:08:09.589Z,56.27
2019-02-17T22:10:56.804Z,55.90
2019-02-17T22:13:35.208Z,55.86
2019-02-17T22:16:15.551Z,55.60
2019-02-17T22:19:02.794Z,55.68
2019-02-17T22:21:43.157Z,55.75
2019-02-17T22:24:30.374Z,55.58
2019-02-17T22:27:11.322Z,55.32
2019-02-17T22:29:58.550Z,55.70
2019-02-17T22:32:39.298Z,55.77
2019-02-17T22:35:26.516Z,55.67
2019-02-17T22:38:07.028Z,55.72
2019-02-17T22:40:54.486Z,55.68
2019-02-17T22:43:35.298Z,56.34
2019-02-17T22:46:22.923Z,56.40
2019-02-17T22:52:29.561Z,56.90
2019-02-17T22:56:03.608Z,56.39
2019-02-17T22:58:43.896Z,56.20
2019-02-17T23:01:32.328Z,55.96
2019-02-17T23:04:13.117Z,56.50
2019-02-17T23:07:37.669Z,56.57
2019-02-17T23:10:20.843Z,56.50
2019-02-17T23:13:08.213Z,57.10
2019-02-17T23:19:01.236Z,57.22
2019-02-17T23:24:44.316Z,57.64
2019-02-17T23:27:31.554Z,57.90
2019-02-17T23:30:12.328Z,57.82
2019-02-17T23:33:36.905Z,58.08
2019-02-17T23:36:17.730Z,58.46
2019-02-17T23:39:18.684Z,58.59
2019-02-17T23:42:06.269Z,58.94
2019-02-17T23:44:47.246Z,59.18
2019-02-17T23:47:34.683Z,59.56
2019-02-17T23:50:22.933Z,59.24
2019-02-17T23:53:10.161Z,59.38
2019-02-17T23:55:51.504Z,59.75
2019-02-17T23:58:38.928Z,60.09
